• Join FlightAware (Why Join?)
  • Login
  • US Flag 
07:49AM EDT


 

Airport Tracker/Info


-or-


 

Live Flight TrackerFlight Track Log ✈ DAL3926 ✈ 21-Apr-2013 ✈ KMSP - KDLH

Flight Track Log - Related Links

Times and Time Zones

All times are in EDT time to prevent confusion due to time zone crossing. See the DAL3926 flight status page for this flight to view local times or setup timezone preferences in your user account.

Time Position Orientation Groundspeed Altitude Reporting Facility
EDT Latitude Longitude Course Direction KTS MPH feet Rate Location/Type
12:31PM 44.8761 -93.1786 45° Northeast 156 180 2,200  Level FAA TRACON SMA TRACON (SMA)
12:31PM 44.8714 -93.1600 110° East 162 186 2,900 2,160 Climbing FAA TRACON SMA TRACON (SMA)
12:32PM 44.8694 -93.1372 97° East 181 208 3,700 2,040 Climbing FAA TRACON SMA TRACON (SMA)
12:32PM 44.8675 -93.1058 95° East 207 238 4,300 1,200 Climbing FAA TRACON SMA TRACON (SMA)
12:32PM 44.8647 -93.0744 97° East 245 282 4,500 1,380 Climbing FAA TRACON SMA TRACON (SMA)
12:32PM 44.8633 -93.0400 93° East 280 322 5,200 3,060 Climbing FAA TRACON SMA TRACON (SMA)
12:33PM 44.8778 -93.0011 62° Northeast 299 344 6,500 2,520 Climbing FAA TRACON SMA TRACON (SMA)
12:33PM 44.8961 -92.9764 44° Northeast 299 344 6,900 600 Climbing FAA TRACON SMA TRACON (SMA)
12:33PM 44.9189 -92.9594 28° Northeast 302 348 6,900 120 Level FAA TRACON SMA TRACON (SMA)
12:34PM 45.1800 -93.3013 45° Northeast  Level FlightAware Approximate
12:34PM 44.9492 -92.9469 16° North 295 339 7,000  Level FAA TRACON SMA TRACON (SMA)
12:34PM 44.9731 -92.9378 15° North 291 335 7,000 1,260 Level FAA TRACON SMA TRACON (SMA)
12:35PM 45.2427 -93.2128 45° Northeast  Level FlightAware Approximate
12:35PM 44.9981 -92.9283 15° North 296 341 7,900  Level FAA TRACON SMA TRACON (SMA)
12:35PM 45.0294 -92.9158 16° North 301 346 9,100 3,120 Climbing FAA TRACON SMA TRACON (SMA)
12:35PM 45.0542 -92.9056 16° North 304 350 10,000 2,460 Climbing FAA TRACON SMA TRACON (SMA)
12:35PM 45.0800 -92.8958 15° North 308 354 10,700 1,800 Climbing FAA TRACON SMA TRACON (SMA)
12:36PM 45.3051 -93.1238 45° Northeast  Level FlightAware Approximate
12:36PM 45.1147 -92.8828 15° North 325 374 11,200  Level FAA TRACON SMA TRACON (SMA)
12:36PM 45.1439 -92.8717 15° North 344 396 11,600 1,500 Climbing FAA TRACON SMA TRACON (SMA)
12:36PM 45.1742 -92.8597 16° North 360 414 12,200 1,920 Climbing FAA TRACON SMA TRACON (SMA)
12:37PM 45.2131 -92.8453 15° North 373 429 12,900 2,100 Climbing FAA TRACON SMA TRACON (SMA)
12:37PM 45.2444 -92.8328 16° North 377 434 13,600 1,920 Climbing FAA TRACON SMA TRACON (SMA)
12:37PM 45.2758 -92.8203 16° North 381 438 14,200 1,920 Climbing FAA TRACON SMA TRACON (SMA)
12:38PM 45.3158 -92.8058 14° North 384 442 14,900 1,200 Climbing FAA TRACON SMA TRACON (SMA)
12:38PM 45.3478 -92.7931 16° North 386 444 15,000 120 Climbing FAA TRACON SMA TRACON (SMA)
12:38PM 45.3800 -92.7819 14° North 387 445 15,000  Level FAA TRACON SMA TRACON (SMA)
12:39PM 45.4197 -92.7661 16° North 383 441 15,000  Level FAA TRACON SMA TRACON (SMA)
12:39PM 45.4514 -92.7550 14° North 383 441 15,000  Level FAA TRACON SMA TRACON (SMA)
12:39PM 45.4822 -92.7428 16° North 378 435 15,000  Level FAA TRACON SMA TRACON (SMA)
12:40PM 45.5217 -92.7283 14° North 376 433 15,000  Level FAA TRACON SMA TRACON (SMA)
12:40PM 45.5528 -92.7164 15° North 375 432 15,000  Level FAA TRACON SMA TRACON (SMA)
12:41PM 45.5833 -92.7042 16° North 373 429 15,000  Level FAA TRACON SMA TRACON (SMA)
12:41PM 45.6219 -92.6889 15° North 374 430 15,000  Level FAA TRACON SMA TRACON (SMA)
12:41PM 45.6525 -92.6767 16° North 371 427 15,000  Level FAA TRACON SMA TRACON (SMA)
12:42PM 45.6833 -92.6650 15° North 371 427 15,000  Level FAA TRACON SMA TRACON (SMA)
12:42PM 45.7142 -92.6539 14° North 370 426 15,000  Level FAA TRACON SMA TRACON (SMA)
12:42PM 45.7522 -92.6389 15° North 369 425 15,000  Level FAA TRACON SMA TRACON (SMA)
12:42PM 45.7831 -92.6269 15° North 369 425 15,000  Level FAA TRACON SMA TRACON (SMA)
12:44PM 45.8722 -92.5864 18° North 369 425 15,000 -300 Level Minneapolis Center
12:45PM 45.9728 -92.5475 15° North 374 430 14,400 -600 Descending Minneapolis Center
12:46PM 46.0958 -92.4975 16° North 384 442 13,800 -660 Descending Minneapolis Center
12:47PM 46.1975 -92.4747 North 372 428 13,100 -1,440 Descending Minneapolis Center
12:48PM 46.2856 -92.4689 North 351 404 10,900 -1,800 Descending Minneapolis Center
12:49PM 46.3714 -92.4819 354° North 320 368 9,500 -1,380 Descending Minneapolis Center
12:50PM 46.4511 -92.4953 353° North 296 341 8,100 -1,380 Descending Minneapolis Center
12:51PM 46.5481 -92.5139 352° North 294 338 6,700 -1,380 Descending Minneapolis Center
12:52PM 46.6264 -92.5333 350° North 291 335 5,300 -1,380 Descending Minneapolis Center
12:53PM 46.7056 -92.5331 360° North 286 329 3,900 -1,080 Descending Minneapolis Center
12:54PM 46.7839 -92.5322 360° North 284 327 3,200 -360 Descending Minneapolis Center
12:55PM 46.8414 -92.5153 11° North 255 293 3,200  Level Minneapolis Center
12:56PM 46.8531 -92.4439 77° East 211 243 3,200  Level Minneapolis Center
12:57PM 46.8472 -92.3767 97° East 187 215 3,200 -240 Level Minneapolis Center
12:58PM 46.8442 -92.3111 94° East 159 183 2,800 -420 Descending Minneapolis Center